Time;durP1;ratioP1;P1;durP2;ratioP2;P2;SDS_P1;SDS_P2;PMS_P1;PMS_P2;Temp;Humidity;BMP_temperature;BMP_pressure;BME280_temperature;BME280_humidity;BME280_pressure;Samples;Min_cycle;Max_cycle;Signal;HPM_P1;HPM_P2
2022/03/12 00:00:46;;;;;;;;;;;9.30;1.00;;;;;;5131153;27;19911;-70
2022/03/12 00:03:13;;;;;;;;;;;9.30;1.00;;;;;;5094747;28;19908;-69
2022/03/12 00:05:45;;;;;;;;;;;9.20;1.00;;;;;;5093932;28;19915;-70
2022/03/12 00:08:11;;;;;;;;;;;9.20;1.00;;;;;;5094874;28;20025;-69
2022/03/12 00:10:39;;;;;;;;;;;9.30;1.00;;;;;;5112210;28;19963;-70
2022/03/12 00:13:04;;;;;;;;;;;9.20;1.00;;;;;;5112988;28;19907;-70
2022/03/12 00:15:31;;;;;;;;;;;9.20;1.00;;;;;;5112908;28;20295;-70
2022/03/12 00:17:57;;;;;;;;;;;9.30;1.00;;;;;;5094160;28;19915;-70
2022/03/12 00:20:22;;;;;;;;;;;9.30;1.00;;;;;;5112667;28;20327;-69
2022/03/12 00:22:50;;;;;;;;;;;9.30;1.00;;;;;;5093770;28;20477;-69
2022/03/12 00:25:18;;;;;;;;;;;;;;;;;;5094744;28;20287;-69
2022/03/12 00:27:44;;;;;;;;;;;9.30;1.00;;;;;;5112029;28;19908;-70
2022/03/12 00:30:10;;;;;;;;;;;9.20;1.00;;;;;;5112774;28;20279;-69
2022/03/12 00:32:36;;;;;;;;;;;;;;;;;;5093587;28;19908;-71
2022/03/12 00:35:03;;;;;;;;;;;9.10;1.00;;;;;;5112675;28;19915;-70
2022/03/12 00:37:28;;;;;;;;;;;9.30;1.00;;;;;;5112747;28;19912;-70
2022/03/12 00:39:55;;;;;;;;;;;;;;;;;;5111824;28;19937;-69
2022/03/12 00:42:21;;;;;;;;;;;;;;;;;;5114947;28;19979;-69
2022/03/12 00:44:46;;;;;;;;;;;9.20;1.00;;;;;;5097664;28;19911;-70
2022/03/12 00:47:12;;;;;;;;;;;9.10;1.00;;;;;;5116822;28;19908;-70
2022/03/12 00:49:37;;;;;;;;;;;;;;;;;;5115891;28;19962;-72
2022/03/12 00:52:03;;;;;;;;;;;;;;;;;;5115474;28;19907;-69
2022/03/12 00:54:29;;;;;;;;;;;9.30;1.00;;;;;;5098243;28;19930;-69
2022/03/12 00:56:54;;;;;;;;;;;9.20;1.00;;;;;;5115595;28;19911;-70
2022/03/12 00:59:20;;;;;;;;;;;9.30;1.00;;;;;;5116455;28;19919;-69
2022/03/12 01:01:46;;;;;;;;;;;9.40;1.00;;;;;;5097374;28;20384;-70
2022/03/12 01:04:11;;;;;;;;;;;9.30;1.00;;;;;;5116373;28;19915;-70
2022/03/12 01:06:37;;;;;;;;;;;;;;;;;;5115769;28;19998;-70
2022/03/12 01:09:03;;;;;;;;;;;9.30;1.00;;;;;;5116452;28;19948;-69
2022/03/12 01:11:29;;;;;;;;;;;9.40;1.00;;;;;;5115918;28;19908;-69
2022/03/12 01:13:55;;;;;;;;;;;9.40;1.00;;;;;;5115403;28;19908;-69
2022/03/12 01:16:21;;;;;;;;;;;9.40;1.00;;;;;;5116377;28;19912;-69
2022/03/12 01:18:46;;;;;;;;;;;9.40;1.00;;;;;;5096997;28;19999;-69
2022/03/12 01:21:17;;;;;;;;;;;9.30;1.00;;;;;;5115677;28;20014;-69
2022/03/12 01:23:43;;;;;;;;;;;9.50;1.00;;;;;;5115451;28;19915;-70
2022/03/12 01:26:09;;;;;;;;;;;9.40;1.00;;;;;;5116008;28;19966;-70
2022/03/12 01:28:35;;;;;;;;;;;;;;;;;;5115855;28;19914;-70
2022/03/12 01:31:01;;;;;;;;;;;;;;;;;;5097055;28;19915;-68
2022/03/12 01:33:27;;;;;;;;;;;9.40;1.00;;;;;;5115793;28;20372;-69
2022/03/12 01:35:52;;;;;;;;;;;9.40;1.00;;;;;;5115000;28;19961;-69
2022/03/12 01:38:18;;;;;;;;;;;;;;;;;;5115708;28;20002;-70
2022/03/12 01:40:44;;;;;;;;;;;9.50;1.00;;;;;;5114809;28;19916;-70
2022/03/12 01:43:10;;;;;;;;;;;9.50;1.00;;;;;;5097280;28;19908;-69
2022/03/12 01:45:36;;;;;;;;;;;;;;;;;;5115582;28;19907;-69
2022/03/12 01:48:03;;;;;;;;;;;9.40;1.00;;;;;;5114966;28;19908;-70
2022/03/12 01:50:29;;;;;;;;;;;9.50;1.00;;;;;;5097156;28;19916;-69
2022/03/12 01:52:58;;;;;;;;;;;9.50;1.00;;;;;;5114128;28;19914;-70
2022/03/12 01:55:30;;;;;;;;;;;9.40;1.00;;;;;;5115408;28;20409;-69
2022/03/12 01:57:57;;;;;;;;;;;9.40;1.00;;;;;;5096315;28;19907;-70
2022/03/12 02:00:26;;;;;;;;;;;9.50;1.00;;;;;;5115237;28;19912;-69
2022/03/12 02:02:54;;;;;;;;;;;9.50;1.00;;;;;;5114477;28;20420;-70
2022/03/12 02:05:21;;;;;;;;;;;9.50;1.00;;;;;;5115141;28;19915;-70
2022/03/12 02:07:47;;;;;;;;;;;;;;;;;;5114350;28;20306;-69
2022/03/12 02:10:18;;;;;;;;;;;;;;;;;;5115204;28;19908;-70
2022/03/12 02:12:43;;;;;;;;;;;9.40;1.00;;;;;;5095796;28;19907;-70
2022/03/12 02:15:09;;;;;;;;;;;9.40;1.00;;;;;;5115033;28;19998;-70
2022/03/12 02:17:35;;;;;;;;;;;;;;;;;;5115067;28;19908;-69
2022/03/12 02:20:00;;;;;;;;;;;9.40;1.00;;;;;;5095567;28;19920;-70
2022/03/12 02:22:26;;;;;;;;;;;9.40;1.00;;;;;;5096514;28;20363;-70
2022/03/12 02:24:53;;;;;;;;;;;9.20;1.00;;;;;;5114128;28;20355;-69
2022/03/12 02:27:18;;;;;;;;;;;9.20;1.00;;;;;;5096478;28;19915;-69
2022/03/12 02:29:44;;;;;;;;;;;9.20;1.00;;;;;;5113941;28;19907;-71
2022/03/12 02:32:10;;;;;;;;;;;9.20;1.00;;;;;;5114705;28;20037;-70
2022/03/12 02:34:42;;;;;;;;;;;9.10;1.00;;;;;;5114739;28;19907;-70
2022/03/12 02:37:08;;;;;;;;;;;9.10;1.00;;;;;;5114489;28;19920;-70
2022/03/12 02:39:37;;;;;;;;;;;;;;;;;;5114437;28;20395;-70
2022/03/12 02:42:03;;;;;;;;;;;9.10;1.00;;;;;;5113570;28;19904;-70
2022/03/12 02:44:29;;;;;;;;;;;9.10;1.00;;;;;;5114487;28;20382;-69
2022/03/12 02:47:11;;;;;;;;;;;9.00;1.00;;;;;;5113507;28;19908;-69
2022/03/12 02:49:38;;;;;;;;;;;9.00;1.00;;;;;;5114498;28;19921;-69
2022/03/12 02:52:05;;;;;;;;;;;9.00;1.00;;;;;;5113460;28;19950;-70
2022/03/12 02:54:30;;;;;;;;;;;8.90;1.00;;;;;;5114148;28;19908;-70
2022/03/12 02:56:56;;;;;;;;;;;8.90;1.00;;;;;;5113359;28;19961;-68
2022/03/12 02:59:21;;;;;;;;;;;8.90;1.00;;;;;;5114285;28;20279;-70
2022/03/12 03:01:47;;;;;;;;;;;8.90;1.00;;;;;;5113236;28;19912;-69
2022/03/12 03:04:13;;;;;;;;;;;8.90;1.00;;;;;;5094935;28;19915;-69
2022/03/12 03:06:38;;;;;;;;;;;8.90;1.00;;;;;;5114008;28;19908;-70
2022/03/12 03:09:04;;;;;;;;;;;9.00;1.00;;;;;;5113140;28;20016;-69
2022/03/12 03:11:39;;;;;;;;;;;8.90;1.00;;;;;;5113857;28;19907;-69
2022/03/12 03:14:10;;;;;;;;;;;9.00;1.00;;;;;;5113033;28;19910;-69
2022/03/12 03:16:36;;;;;;;;;;;9.00;1.00;;;;;;5113853;28;19952;-69
2022/03/12 03:19:02;;;;;;;;;;;9.00;1.00;;;;;;5112938;28;19916;-70
2022/03/12 03:21:28;;;;;;;;;;;9.00;1.00;;;;;;5113411;28;19928;-70
2022/03/12 03:23:54;;;;;;;;;;;9.00;1.00;;;;;;5112853;28;19942;-70
2022/03/12 03:26:35;;;;;;;;;;;9.10;1.00;;;;;;5113710;28;19907;-70
2022/03/12 03:29:00;;;;;;;;;;;9.10;1.00;;;;;;5094524;28;19908;-70
2022/03/12 03:31:26;;;;;;;;;;;9.20;1.00;;;;;;5113731;28;20469;-70
2022/03/12 03:33:52;;;;;;;;;;;9.20;1.00;;;;;;5094454;28;19908;-69
2022/03/12 03:36:19;;;;;;;;;;;9.20;1.00;;;;;;5114097;28;19911;-69
2022/03/12 03:38:45;;;;;;;;;;;;;;;;;;5113114;28;19996;-72
2022/03/12 03:41:10;;;;;;;;;;;9.20;1.00;;;;;;5112954;28;19961;-70
2022/03/12 03:43:36;;;;;;;;;;;9.10;1.00;;;;;;5097069;28;20310;-69
2022/03/12 03:46:01;;;;;;;;;;;9.20;1.00;;;;;;5092263;28;20303;-69
2022/03/12 03:48:27;;;;;;;;;;;9.10;1.00;;;;;;5092855;28;19908;-70
2022/03/12 03:50:53;;;;;;;;;;;9.10;1.00;;;;;;5074125;28;19920;-70
2022/03/12 03:53:20;;;;;;;;;;;9.00;1.00;;;;;;5092764;28;19912;-70
2022/03/12 03:55:46;;;;;;;;;;;;;;;;;;5092563;28;19908;-71
2022/03/12 03:58:12;;;;;;;;;;;;;;;;;;5092311;28;19919;-69
2022/03/12 04:00:38;;;;;;;;;;;8.90;1.00;;;;;;5108317;28;19912;-69
2022/03/12 04:03:04;;;;;;;;;;;8.80;1.00;;;;;;5091843;28;19954;-69
2022/03/12 04:05:30;;;;;;;;;;;8.80;1.00;;;;;;5074514;28;19951;-70
2022/03/12 04:07:55;;;;;;;;;;;8.80;1.00;;;;;;5091826;28;19947;-70
2022/03/12 04:10:21;;;;;;;;;;;;;;;;;;5092581;28;19912;-69
2022/03/12 04:12:47;;;;;;;;;;;;;;;;;;5101087;28;19915;-70
2022/03/12 04:15:13;;;;;;;;;;;8.90;1.00;;;;;;5112400;28;19908;-70
2022/03/12 04:17:39;;;;;;;;;;;8.90;1.00;;;;;;5094577;28;19945;-69
2022/03/12 04:20:04;;;;;;;;;;;8.80;1.00;;;;;;5111708;28;20336;-70
2022/03/12 04:22:31;;;;;;;;;;;8.80;1.00;;;;;;5112674;28;19986;-70
2022/03/12 04:24:56;;;;;;;;;;;8.70;1.00;;;;;;5112022;28;19915;-69
2022/03/12 04:27:22;;;;;;;;;;;8.70;1.00;;;;;;5094470;28;19908;-69
2022/03/12 04:29:48;;;;;;;;;;;;;;;;;;5093207;28;19916;-71
2022/03/12 04:32:16;;;;;;;;;;;;;;;;;;5073895;28;19908;-70
2022/03/12 04:34:42;;;;;;;;;;;8.50;1.00;;;;;;5092271;28;19919;-69
2022/03/12 04:37:07;;;;;;;;;;;8.60;1.00;;;;;;5073368;28;20103;-69
2022/03/12 04:39:34;;;;;;;;;;;8.60;1.00;;;;;;5092230;28;19915;-70
2022/03/12 04:41:59;;;;;;;;;;;8.50;1.00;;;;;;5091527;28;19908;-70
2022/03/12 04:44:25;;;;;;;;;;;8.50;1.00;;;;;;5112103;28;19953;-69
2022/03/12 04:46:51;;;;;;;;;;;;;;;;;;5111962;28;19912;-70
2022/03/12 04:49:17;;;;;;;;;;;;;;;;;;5112700;28;19916;-69
2022/03/12 04:51:43;;;;;;;;;;;8.50;1.00;;;;;;5112500;28;19908;-69
2022/03/12 04:54:08;;;;;;;;;;;8.40;1.00;;;;;;5111722;28;19908;-69
2022/03/12 04:56:34;;;;;;;;;;;8.50;1.00;;;;;;5094402;28;19908;-69
2022/03/12 04:58:59;;;;;;;;;;;8.40;1.00;;;;;;5093420;28;20253;-69
2022/03/12 05:01:25;;;;;;;;;;;8.40;1.00;;;;;;5112317;28;19919;-70
2022/03/12 05:03:51;;;;;;;;;;;;;;;;;;5111965;28;19915;-71
2022/03/12 05:06:18;;;;;;;;;;;8.30;1.00;;;;;;5112387;28;19911;-69
2022/03/12 05:08:44;;;;;;;;;;;8.30;1.00;;;;;;5093072;28;19912;-69
2022/03/12 05:11:10;;;;;;;;;;;8.20;1.00;;;;;;5111486;28;20535;-69
2022/03/12 05:13:35;;;;;;;;;;;8.10;1.00;;;;;;5112134;28;20436;-69
2022/03/12 05:16:05;;;;;;;;;;;;;;;;;;5111450;28;20284;-70
2022/03/12 05:18:31;;;;;;;;;;;8.20;1.00;;;;;;5093888;28;19914;-69
2022/03/12 05:20:57;;;;;;;;;;;8.10;1.00;;;;;;5093017;28;19959;-70
2022/03/12 05:23:23;;;;;;;;;;;8.10;1.00;;;;;;5110307;28;20012;-69
2022/03/12 05:25:49;;;;;;;;;;;8.10;1.00;;;;;;5112053;28;19957;-69
2022/03/12 05:28:15;;;;;;;;;;;;;;;;;;5113917;28;19916;-70
2022/03/12 05:30:41;;;;;;;;;;;;;;;;;;5115941;28;19912;-69
2022/03/12 05:33:08;;;;;;;;;;;8.00;1.00;;;;;;5099848;28;19916;-69
2022/03/12 05:35:34;;;;;;;;;;;8.00;2.80;;;;;;5095499;28;19957;-70
2022/03/12 05:37:59;;;;;;;;;;;8.10;6.40;;;;;;5110352;28;20006;-69
2022/03/12 05:40:29;;;;;;;;;;;8.10;11.80;;;;;;5102651;27;20430;-69
2022/03/12 05:42:55;;;;;;;;;;;;;;;;;;5130995;27;20428;-71
2022/03/12 05:45:21;;;;;;;;;;;;;;;;;;5115578;28;19935;-69
2022/03/12 05:47:49;;;;;;;;;;;8.40;33.60;;;;;;5097272;28;19908;-69
2022/03/12 05:50:14;;;;;;;;;;;8.40;37.80;;;;;;5100995;27;19918;-69
2022/03/12 05:52:41;;;;;;;;;;;8.40;39.60;;;;;;5115612;28;19908;-69
2022/03/12 05:55:08;;;;;;;;;;;8.40;44.10;;;;;;5114608;28;19908;-69
2022/03/12 05:57:34;;;;;;;;;;;8.40;47.70;;;;;;5115482;28;20393;-69
2022/03/12 06:00:03;;;;;;;;;;;8.40;50.50;;;;;;5114584;28;19966;-70
2022/03/12 06:02:29;;;;;;;;;;;8.40;53.20;;;;;;5115068;28;19908;-70
2022/03/12 06:04:55;;;;;;;;;;;;;;;;;;5098746;28;20279;-71
2022/03/12 06:07:24;;;;;;;;;;;;;;;;;;5115207;28;20020;-69
2022/03/12 06:09:49;;;;;;;;;;;8.60;58.80;;;;;;5115117;28;19908;-69
2022/03/12 06:12:15;;;;;;;;;;;8.60;59.70;;;;;;5114245;28;20363;-70
2022/03/12 06:14:41;;;;;;;;;;;;;;;;;;5114144;28;19954;-71
2022/03/12 06:17:07;;;;;;;;;;;8.60;60.00;;;;;;5093764;28;19916;-69
2022/03/12 06:19:34;;;;;;;;;;;8.60;61.30;;;;;;5094281;28;20319;-69
2022/03/12 06:21:59;;;;;;;;;;;8.70;61.60;;;;;;5093882;28;20414;-69
2022/03/12 06:24:26;;;;;;;;;;;8.70;62.30;;;;;;5094673;28;19908;-69
2022/03/12 06:26:52;;;;;;;;;;;;;;;;;;5094400;28;19912;-69
2022/03/12 06:29:18;;;;;;;;;;;;;;;;;;5076491;27;20690;-70
2022/03/12 06:31:43;;;;;;;;;;;8.80;62.10;;;;;;5135020;27;19972;-70
2022/03/12 06:34:10;;;;;;;;;;;8.70;62.60;;;;;;5118514;27;19914;-69
2022/03/12 06:36:37;;;;;;;;;;;8.70;63.30;;;;;;5135345;27;20379;-69
2022/03/12 06:39:04;;;;;;;;;;;8.70;63.30;;;;;;5115946;27;20319;-69
2022/03/12 06:41:31;;;;;;;;;;;8.70;63.60;;;;;;5116619;27;19911;-68
2022/03/12 06:43:57;;;;;;;;;;;;;;;;;;5123892;27;20372;-70
2022/03/12 06:46:24;;;;;;;;;;;9.00;64.30;;;;;;5118122;27;19912;-68
2022/03/12 06:48:50;;;;;;;;;;;8.80;63.50;;;;;;5114551;28;19998;-70
2022/03/12 06:51:16;;;;;;;;;;;8.90;64.10;;;;;;5119865;27;20575;-70
2022/03/12 06:53:42;;;;;;;;;;;;;;;;;;5132291;27;19911;-70
2022/03/12 06:56:07;;;;;;;;;;;;;;;;;;5113482;28;19943;-68
2022/03/12 06:58:34;;;;;;;;;;;9.00;63.80;;;;;;5095828;28;19911;-70
2022/03/12 07:01:00;;;;;;;;;;;;;;;;;;5095060;28;19916;-70
2022/03/12 07:03:26;;;;;;;;;;;9.00;64.80;;;;;;5114079;28;19950;-70
2022/03/12 07:05:52;;;;;;;;;;;;;;;;;;5113804;28;19916;-70
2022/03/12 07:08:19;;;;;;;;;;;9.00;64.00;;;;;;5112364;28;19923;-69
2022/03/12 07:10:45;;;;;;;;;;;9.00;65.20;;;;;;5113783;28;19908;-70
2022/03/12 07:13:11;;;;;;;;;;;9.00;65.10;;;;;;5094966;28;19914;-70
2022/03/12 07:15:36;;;;;;;;;;;;;;;;;;5114471;28;19907;-70
2022/03/12 07:18:02;;;;;;;;;;;9.00;66.40;;;;;;5112998;28;19915;-71
2022/03/12 07:20:28;;;;;;;;;;;9.10;66.70;;;;;;5114694;28;19907;-71
2022/03/12 07:22:53;;;;;;;;;;;9.10;67.40;;;;;;5113929;28;19908;-71
2022/03/12 07:25:19;;;;;;;;;;;9.30;67.60;;;;;;5113466;28;19943;-72
2022/03/12 07:27:45;;;;;;;;;;;9.40;66.00;;;;;;5113496;28;20275;-70
2022/03/12 07:30:12;;;;;;;;;;;9.50;64.40;;;;;;5094943;28;20342;-72
2022/03/12 07:32:39;;;;;;;;;;;9.60;63.40;;;;;;5113986;28;19914;-70
2022/03/12 07:35:05;;;;;;;;;;;9.70;64.20;;;;;;5091188;28;19916;-70
2022/03/12 07:37:31;;;;;;;;;;;;;;;;;;5093500;28;19915;-71
2022/03/12 07:39:56;;;;;;;;;;;9.70;62.90;;;;;;5092958;28;19912;-70
2022/03/12 07:42:22;;;;;;;;;;;9.90;61.80;;;;;;5092914;28;19915;-71
2022/03/12 07:44:48;;;;;;;;;;;9.90;60.90;;;;;;5110575;28;19908;-76
2022/03/12 07:47:14;;;;;;;;;;;;;;;;;;5112010;28;19912;-75
2022/03/12 07:49:41;;;;;;;;;;;10.10;58.80;;;;;;5087914;28;20319;-70
2022/03/12 07:52:07;;;;;;;;;;;10.20;55.00;;;;;;5100663;28;19908;-77
2022/03/12 07:54:33;;;;;;;;;;;;;;;;;;5102407;28;19919;-69
2022/03/12 07:56:59;;;;;;;;;;;;;;;;;;5100381;28;19915;-70
2022/03/12 07:59:27;;;;;;;;;;;;;;;;;;5099352;28;19908;-69
2022/03/12 08:01:52;;;;;;;;;;;;;;;;;;5083104;28;19916;-69
2022/03/12 08:04:18;;;;;;;;;;;10.50;51.50;;;;;;5092246;28;20720;-71
2022/03/12 08:06:44;;;;;;;;;;;10.60;50.60;;;;;;5092434;28;19915;-70
2022/03/12 08:09:09;;;;;;;;;;;10.60;49.90;;;;;;5112171;28;20334;-70
2022/03/12 08:11:35;;;;;;;;;;;10.70;48.40;;;;;;5094841;28;19915;-69
2022/03/12 08:14:07;;;;;;;;;;;;;;;;;;5083155;28;20357;-74
2022/03/12 08:16:34;;;;;;;;;;;11.00;44.90;;;;;;5109974;28;19911;-71
2022/03/12 08:19:00;;;;;;;;;;;;;;;;;;5090979;28;19923;-75
2022/03/12 08:21:26;;;;;;;;;;;10.90;38.00;;;;;;5081980;28;19920;-71
2022/03/12 08:23:51;;;;;;;;;;;;;;;;;;5102215;28;19958;-71
2022/03/12 08:26:18;;;;;;;;;;;11.10;32.40;;;;;;5099554;28;20324;-71
2022/03/12 08:28:44;;;;;;;;;;;11.20;30.00;;;;;;5082946;28;20370;-71
2022/03/12 08:31:09;;;;;;;;;;;11.00;29.00;;;;;;5101337;28;19961;-71
2022/03/12 08:33:37;;;;;;;;;;;11.30;29.70;;;;;;5109591;28;19990;-71
2022/03/12 08:36:02;;;;;;;;;;;;;;;;;;5112234;28;19915;-74
2022/03/12 08:38:28;;;;;;;;;;;;;;;;;;5100097;28;19912;-71
2022/03/12 08:40:54;;;;;;;;;;;11.20;24.70;;;;;;5092460;28;19912;-71
2022/03/12 08:43:21;;;;;;;;;;;;;;;;;;5105037;28;20263;-72
2022/03/12 08:45:47;;;;;;;;;;;11.40;20.90;;;;;;5112398;28;19915;-71
2022/03/12 08:48:13;;;;;;;;;;;11.40;20.70;;;;;;5111793;28;20010;-71
2022/03/12 08:50:39;;;;;;;;;;;11.40;19.70;;;;;;5112246;28;19959;-72
2022/03/12 08:53:05;;;;;;;;;;;;;;;;;;5111874;28;19908;-75
2022/03/12 08:55:30;;;;;;;;;;;11.50;16.10;;;;;;5112778;28;19908;-72
2022/03/12 08:57:56;;;;;;;;;;;11.50;17.00;;;;;;5112527;28;19946;-72
2022/03/12 09:00:22;;;;;;;;;;;;;;;;;;5111623;28;19962;-71
2022/03/12 09:02:47;;;;;;;;;;;11.60;15.30;;;;;;5095540;28;20340;-71
2022/03/12 09:05:13;;;;;;;;;;;11.70;16.10;;;;;;5115610;28;20269;-70
2022/03/12 09:07:40;;;;;;;;;;;11.80;13.00;;;;;;5116457;28;19908;-70
2022/03/12 09:10:06;;;;;;;;;;;;;;;;;;5097430;28;20048;-75
2022/03/12 09:12:32;;;;;;;;;;;;;;;;;;5116222;28;20336;-71
2022/03/12 09:14:57;;;;;;;;;;;11.70;12.20;;;;;;5096991;28;19915;-70
2022/03/12 09:17:23;;;;;;;;;;;11.80;9.00;;;;;;5094930;28;20463;-70
2022/03/12 09:19:49;;;;;;;;;;;;;;;;;;5095491;28;19924;-70
2022/03/12 09:22:14;;;;;;;;;;;12.10;8.40;;;;;;5094898;28;19966;-71
2022/03/12 09:24:40;;;;;;;;;;;12.30;5.60;;;;;;5095881;28;19908;-71
2022/03/12 09:27:06;;;;;;;;;;;;;;;;;;5095007;28;19931;-76
2022/03/12 09:29:35;;;;;;;;;;;;;;;;;;5095748;28;20007;-71
2022/03/12 09:32:01;;;;;;;;;;;11.90;4.40;;;;;;5095533;28;19908;-72
2022/03/12 09:34:27;;;;;;;;;;;11.90;5.00;;;;;;5076670;28;20258;-71
2022/03/12 09:36:52;;;;;;;;;;;11.90;3.00;;;;;;5095429;28;19908;-71
2022/03/12 09:39:18;;;;;;;;;;;12.00;3.20;;;;;;5076350;28;19908;-72
2022/03/12 09:41:44;;;;;;;;;;;12.00;2.20;;;;;;5095217;28;19912;-73
2022/03/12 09:44:10;;;;;;;;;;;11.90;1.00;;;;;;5106736;28;20364;-72
2022/03/12 09:46:35;;;;;;;;;;;12.00;1.00;;;;;;5097398;28;19961;-72
2022/03/12 09:49:02;;;;;;;;;;;;;;;;;;5115404;28;19908;-72
2022/03/12 09:51:29;;;;;;;;;;;12.60;1.00;;;;;;5096389;28;20713;-72
2022/03/12 09:53:55;;;;;;;;;;;12.70;1.00;;;;;;5115488;28;19908;-72
2022/03/12 09:56:21;;;;;;;;;;;;;;;;;;5114562;28;19908;-71
2022/03/12 09:58:47;;;;;;;;;;;13.10;1.00;;;;;;5115420;28;19908;-72
2022/03/12 10:01:12;;;;;;;;;;;13.00;1.00;;;;;;5096252;28;20321;-72
2022/03/12 10:03:38;;;;;;;;;;;12.90;1.00;;;;;;5115351;28;19915;-72
2022/03/12 10:06:05;;;;;;;;;;;12.80;1.00;;;;;;5096881;28;20308;-72
2022/03/12 10:08:31;;;;;;;;;;;13.00;1.00;;;;;;5114632;28;19933;-71
2022/03/12 10:10:56;;;;;;;;;;;13.10;1.00;;;;;;5115153;28;20310;-72
2022/03/12 10:13:22;;;;;;;;;;;13.10;1.00;;;;;;5095634;28;19915;-72
2022/03/12 10:15:47;;;;;;;;;;;13.40;1.00;;;;;;5096844;28;19908;-72
2022/03/12 10:18:13;;;;;;;;;;;13.10;1.00;;;;;;5114244;28;20368;-72
2022/03/12 10:20:39;;;;;;;;;;;13.50;1.00;;;;;;5115027;28;20287;-72
2022/03/12 10:23:11;;;;;;;;;;;13.60;1.00;;;;;;5096552;28;19908;-73
2022/03/12 10:25:38;;;;;;;;;;;;;;;;;;5115702;28;19908;-72
2022/03/12 10:28:04;;;;;;;;;;;13.10;1.00;;;;;;5114807;28;19915;-71
2022/03/12 10:30:29;;;;;;;;;;;13.10;1.00;;;;;;5113892;28;19995;-71
2022/03/12 10:32:55;;;;;;;;;;;13.40;1.00;;;;;;5114711;28;20280;-71
2022/03/12 10:35:22;;;;;;;;;;;13.40;1.00;;;;;;5113916;28;19911;-72
2022/03/12 10:37:48;;;;;;;;;;;13.50;1.00;;;;;;5114651;28;19933;-71
2022/03/12 10:40:32;;;;;;;;;;;13.30;1.00;;;;;;5113787;28;19919;-71
2022/03/12 10:43:05;;;;;;;;;;;13.10;1.00;;;;;;5093966;28;20384;-72
2022/03/12 10:45:52;;;;;;;;;;;13.20;1.00;;;;;;5093269;28;19911;-72
2022/03/12 10:48:20;;;;;;;;;;;13.50;1.00;;;;;;5075164;28;20381;-71
2022/03/12 10:50:47;;;;;;;;;;;13.50;1.00;;;;;;5095395;28;20010;-72
2022/03/12 10:53:13;;;;;;;;;;;13.20;1.00;;;;;;5093360;28;19916;-72
2022/03/12 10:55:41;;;;;;;;;;;13.30;1.00;;;;;;5094401;28;19913;-72
2022/03/12 10:58:08;;;;;;;;;;;13.60;1.00;;;;;;5093862;28;19915;-72
2022/03/12 11:00:54;;;;;;;;;;;13.60;1.00;;;;;;5093211;28;19912;-72
2022/03/12 11:03:28;;;;;;;;;;;13.50;1.00;;;;;;5092830;28;19908;-72
2022/03/12 11:05:55;;;;;;;;;;;;;;;;;;5075498;28;19958;-72
2022/03/12 11:08:25;;;;;;;;;;;13.90;1.00;;;;;;5092913;28;19908;-72
2022/03/12 11:10:51;;;;;;;;;;;13.70;1.00;;;;;;5075600;28;19944;-72
2022/03/12 11:13:25;;;;;;;;;;;13.80;1.00;;;;;;5079264;28;19959;-73
2022/03/12 11:16:04;;;;;;;;;;;13.70;1.00;;;;;;5113892;28;19953;-73
2022/03/12 11:18:30;;;;;;;;;;;13.90;1.00;;;;;;5113128;28;19918;-73
2022/03/12 11:20:55;;;;;;;;;;;14.40;1.00;;;;;;5095275;28;19924;-72
2022/03/12 11:23:27;;;;;;;;;;;14.40;1.00;;;;;;5113007;28;19908;-72
2022/03/12 11:25:59;;;;;;;;;;;14.60;1.00;;;;;;5113010;28;19993;-72
2022/03/12 11:28:25;;;;;;;;;;;14.70;1.00;;;;;;5112851;28;19956;-72
2022/03/12 11:30:51;;;;;;;;;;;14.50;1.00;;;;;;5113536;28;19933;-72
2022/03/12 11:33:17;;;;;;;;;;;14.40;1.00;;;;;;5112906;28;19915;-72
2022/03/12 11:35:44;;;;;;;;;;;14.50;1.00;;;;;;5095225;28;19908;-73
2022/03/12 11:38:11;;;;;;;;;;;14.20;1.00;;;;;;5095208;28;19912;-73
2022/03/12 11:40:40;;;;;;;;;;;14.30;1.00;;;;;;5112796;28;19912;-73
2022/03/12 11:43:18;;;;;;;;;;;14.20;1.00;;;;;;5094961;28;20249;-72
2022/03/12 11:45:44;;;;;;;;;;;14.20;1.00;;;;;;5113416;28;19956;-72
2022/03/12 11:48:10;;;;;;;;;;;14.20;1.00;;;;;;5113292;28;20381;-73
2022/03/12 11:50:36;;;;;;;;;;;14.50;1.00;;;;;;5112884;28;19923;-73
2022/03/12 11:53:02;;;;;;;;;;;;;;;;;;5113317;28;19915;-73
2022/03/12 11:55:28;;;;;;;;;;;15.10;1.00;;;;;;5112479;28;20299;-73
2022/03/12 11:57:56;;;;;;;;;;;14.60;1.00;;;;;;5113231;28;19914;-72
2022/03/12 12:00:24;;;;;;;;;;;14.50;1.00;;;;;;5094079;28;20022;-73
2022/03/12 12:02:52;;;;;;;;;;;14.50;1.00;;;;;;5113085;28;19908;-73
2022/03/12 12:05:19;;;;;;;;;;;14.60;1.00;;;;;;5094100;28;19919;-73
2022/03/12 12:07:45;;;;;;;;;;;14.60;1.00;;;;;;5112993;28;19908;-72
2022/03/12 12:10:17;;;;;;;;;;;14.90;1.00;;;;;;5113345;28;19957;-73
2022/03/12 12:12:45;;;;;;;;;;;15.10;1.00;;;;;;5112882;28;19907;-73
2022/03/12 12:15:15;;;;;;;;;;;;;;;;;;5092678;28;19908;-73
2022/03/12 12:17:42;;;;;;;;;;;14.70;1.00;;;;;;5107914;28;19908;-73
2022/03/12 12:20:08;;;;;;;;;;;;;;;;;;5092698;28;19963;-73
2022/03/12 12:22:34;;;;;;;;;;;14.50;1.00;;;;;;5091708;28;19954;-73
2022/03/12 12:25:02;;;;;;;;;;;14.90;1.00;;;;;;5092647;28;19963;-72
2022/03/12 12:27:39;;;;;;;;;;;14.80;1.00;;;;;;5073870;28;19953;-73
2022/03/12 12:30:05;;;;;;;;;;;14.70;1.00;;;;;;5092340;28;19934;-73
2022/03/12 12:32:31;;;;;;;;;;;14.90;1.00;;;;;;5073715;28;19912;-73
2022/03/12 12:34:58;;;;;;;;;;;14.90;1.00;;;;;;5092365;28;19908;-72
2022/03/12 12:37:42;;;;;;;;;;;15.30;1.00;;;;;;5076017;28;19908;-73
2022/03/12 12:40:17;;;;;;;;;;;15.50;1.00;;;;;;5112241;28;19976;-73
2022/03/12 12:42:43;;;;;;;;;;;15.50;1.00;;;;;;5078051;28;19912;-72
2022/03/12 12:45:15;;;;;;;;;;;15.20;1.00;;;;;;5115315;28;19933;-72
2022/03/12 12:47:41;;;;;;;;;;;15.00;1.00;;;;;;5116109;28;19915;-72
2022/03/12 12:50:17;;;;;;;;;;;15.00;1.00;;;;;;5116857;28;20360;-73
2022/03/12 12:53:03;;;;;;;;;;;15.10;1.00;;;;;;5116498;28;20435;-73
2022/03/12 12:55:31;;;;;;;;;;;15.70;1.00;;;;;;5097553;28;19907;-73
2022/03/12 12:57:57;;;;;;;;;;;;;;;;;;5116567;28;19908;-73
2022/03/12 13:00:31;;;;;;;;;;;15.60;1.00;;;;;;5097440;28;20265;-73
2022/03/12 13:03:00;;;;;;;;;;;15.50;1.00;;;;;;5098368;28;19939;-73
2022/03/12 13:05:42;;;;;;;;;;;15.20;1.00;;;;;;5115708;28;19957;-73
2022/03/12 13:08:08;;;;;;;;;;;15.00;1.00;;;;;;5116455;28;19982;-73
2022/03/12 13:10:34;;;;;;;;;;;14.80;1.00;;;;;;5115691;28;20003;-72
2022/03/12 13:13:10;;;;;;;;;;;15.00;1.00;;;;;;5116401;28;19908;-73
2022/03/12 13:15:36;;;;;;;;;;;15.00;1.00;;;;;;5115276;28;19907;-73
2022/03/12 13:18:02;;;;;;;;;;;;;;;;;;5116316;28;20359;-73
2022/03/12 13:20:28;;;;;;;;;;;;;;;;;;5096784;28;20011;-73
2022/03/12 13:22:57;;;;;;;;;;;14.90;1.00;;;;;;5116096;28;19947;-73
2022/03/12 13:25:23;;;;;;;;;;;15.10;1.00;;;;;;5115318;28;19914;-74
2022/03/12 13:28:01;;;;;;;;;;;15.20;1.00;;;;;;5116008;28;20342;-73
2022/03/12 13:30:27;;;;;;;;;;;15.20;1.00;;;;;;5115171;28;19914;-73
2022/03/12 13:32:55;;;;;;;;;;;15.30;1.00;;;;;;5097574;28;19908;-73
2022/03/12 13:35:21;;;;;;;;;;;;;;;;;;5115343;28;19934;-76
2022/03/12 13:37:48;;;;;;;;;;;15.20;1.00;;;;;;5115741;28;19908;-73
2022/03/12 13:40:14;;;;;;;;;;;15.00;1.00;;;;;;5115658;28;19955;-73
2022/03/12 13:42:41;;;;;;;;;;;15.30;1.00;;;;;;5114972;28;19903;-72
2022/03/12 13:45:06;;;;;;;;;;;15.30;1.00;;;;;;5097109;28;19908;-73
2022/03/12 13:47:32;;;;;;;;;;;;;;;;;;5098510;28;19911;-73
2022/03/12 13:49:58;;;;;;;;;;;15.30;1.00;;;;;;5116369;28;19916;-73
2022/03/12 13:52:23;;;;;;;;;;;15.40;1.00;;;;;;5115048;28;19908;-73
2022/03/12 13:54:59;;;;;;;;;;;15.80;1.00;;;;;;5116538;28;20002;-73
2022/03/12 13:57:27;;;;;;;;;;;15.80;1.00;;;;;;5115149;28;19915;-73
2022/03/12 13:59:59;;;;;;;;;;;15.50;1.00;;;;;;5115912;28;19908;-72
2022/03/12 14:02:25;;;;;;;;;;;15.20;1.00;;;;;;5114785;28;19908;-73
2022/03/12 14:04:52;;;;;;;;;;;;;;;;;;5115335;28;20298;-73
2022/03/12 14:07:19;;;;;;;;;;;15.70;1.00;;;;;;5097002;28;19911;-73
2022/03/12 14:09:46;;;;;;;;;;;16.00;1.00;;;;;;5114445;28;19934;-73
2022/03/12 14:12:12;;;;;;;;;;;;;;;;;;5115222;28;19908;-73
2022/03/12 14:14:37;;;;;;;;;;;16.50;1.00;;;;;;5114170;28;19908;-73
2022/03/12 14:17:04;;;;;;;;;;;16.10;1.00;;;;;;5097262;28;19915;-73
2022/03/12 14:19:32;;;;;;;;;;;16.10;1.00;;;;;;5114188;28;20073;-74
2022/03/12 14:22:00;;;;;;;;;;;16.00;1.00;;;;;;5115032;28;19912;-73
2022/03/12 14:24:28;;;;;;;;;;;;;;;;;;5114573;28;19915;-73
2022/03/12 14:26:58;;;;;;;;;;;15.40;1.00;;;;;;5096634;28;19908;-73
2022/03/12 14:29:25;;;;;;;;;;;;;;;;;;5096273;28;19908;-76
2022/03/12 14:31:50;;;;;;;;;;;15.30;1.00;;;;;;5096757;28;19908;-73
2022/03/12 14:34:16;;;;;;;;;;;15.40;1.00;;;;;;5114752;28;19915;-73
2022/03/12 14:36:42;;;;;;;;;;;;;;;;;;5113830;28;20530;-73
2022/03/12 14:39:14;;;;;;;;;;;15.40;1.00;;;;;;5096235;28;19916;-73
2022/03/12 14:41:40;;;;;;;;;;;15.30;1.00;;;;;;5091430;28;20001;-72
2022/03/12 14:44:10;;;;;;;;;;;15.10;1.00;;;;;;5111457;28;19953;-73
2022/03/12 14:46:36;;;;;;;;;;;15.40;1.00;;;;;;5095363;28;19908;-73
2022/03/12 14:49:01;;;;;;;;;;;15.50;1.00;;;;;;5114427;28;19908;-72
2022/03/12 14:51:27;;;;;;;;;;;;;;;;;;5113540;28;19915;-74
2022/03/12 14:53:53;;;;;;;;;;;15.20;1.00;;;;;;5114317;28;19914;-72
2022/03/12 14:56:18;;;;;;;;;;;15.10;1.00;;;;;;5096001;28;20265;-72